createdAt,value
2023-02-04T00:00:17.442Z,0.95
2023-02-04T00:02:44.569Z,0.98
2023-02-04T00:05:12.422Z,0.63
2023-02-04T00:07:41.367Z,0.95
2023-02-04T00:10:10.278Z,0.70
2023-02-04T00:12:37.586Z,1.00
2023-02-04T00:15:05.262Z,0.80
2023-02-04T00:17:32.342Z,0.82
2023-02-04T00:19:59.356Z,0.88
2023-02-04T00:22:28.660Z,0.88
2023-02-04T00:24:55.665Z,0.80
2023-02-04T00:27:23.160Z,1.00
2023-02-04T00:29:50.082Z,0.82
2023-02-04T00:32:17.296Z,0.90
2023-02-04T00:34:44.190Z,0.80
2023-02-04T00:37:11.072Z,0.98
2023-02-04T00:39:38.487Z,0.90
2023-02-04T00:42:06.082Z,0.95
2023-02-04T00:44:33.174Z,0.95
2023-02-04T00:47:00.153Z,0.88
2023-02-04T00:49:27.059Z,0.80
2023-02-04T00:51:54.156Z,0.93
2023-02-04T00:54:21.006Z,0.75
2023-02-04T00:56:47.962Z,0.95
2023-02-04T00:59:14.835Z,0.80
2023-02-04T01:01:41.810Z,0.85
2023-02-04T01:04:08.755Z,0.77
2023-02-04T01:06:36.055Z,1.00
2023-02-04T01:09:04.347Z,0.80
2023-02-04T01:11:32.266Z,0.80
2023-02-04T01:13:59.810Z,0.75
2023-02-04T01:16:26.748Z,0.85
2023-02-04T01:18:56.106Z,0.90
2023-02-04T01:21:24.571Z,0.73
2023-02-04T01:23:51.616Z,1.00
2023-02-04T01:26:19.220Z,1.05
2023-02-04T01:28:46.399Z,1.55
2023-02-04T01:31:13.855Z,0.68
2023-02-04T01:33:40.850Z,1.05
2023-02-04T01:36:08.567Z,0.90
2023-02-04T01:38:35.408Z,0.63
2023-02-04T01:41:06.037Z,0.90
2023-02-04T01:43:34.198Z,0.77
2023-02-04T01:46:02.892Z,0.85
2023-02-04T01:48:30.663Z,0.98
2023-02-04T01:51:07.789Z,0.70
2023-02-04T01:53:36.281Z,0.60
2023-02-04T01:56:18.336Z,0.68
2023-02-04T01:58:45.757Z,0.90
2023-02-04T02:01:53.096Z,0.93
2023-02-04T02:04:31.812Z,0.60
2023-02-04T02:07:02.595Z,0.68
2023-02-04T02:09:31.739Z,1.05
2023-02-04T02:11:59.200Z,0.68
2023-02-04T02:14:26.101Z,0.85
2023-02-04T02:16:53.134Z,0.80
2023-02-04T02:19:28.946Z,0.60
2023-02-04T02:22:03.844Z,0.70
2023-02-04T02:24:32.956Z,0.75
2023-02-04T02:27:07.538Z,0.73
2023-02-04T02:29:35.702Z,0.70
2023-02-04T02:32:03.187Z,1.00
2023-02-04T02:34:30.901Z,0.73
2023-02-04T02:36:59.765Z,0.65
2023-02-04T02:39:26.900Z,0.65
2023-02-04T02:41:55.227Z,0.93
2023-02-04T02:44:22.569Z,0.60
2023-02-04T02:46:49.643Z,0.60
2023-02-04T02:49:19.072Z,0.60
2023-02-04T02:51:47.049Z,0.70
2023-02-04T02:54:24.490Z,0.90
2023-02-04T02:56:52.769Z,0.82
2023-02-04T02:59:20.122Z,0.73
2023-02-04T03:01:51.979Z,0.70
2023-02-04T03:04:20.117Z,0.60
2023-02-04T03:06:47.330Z,0.80
2023-02-04T03:09:14.406Z,0.73
2023-02-04T03:11:41.431Z,0.90
2023-02-04T03:14:08.483Z,0.80
2023-02-04T03:16:38.185Z,0.75
2023-02-04T03:19:07.248Z,0.80
2023-02-04T03:21:35.503Z,0.63
2023-02-04T03:24:02.825Z,0.80
2023-02-04T03:26:29.966Z,0.65
2023-02-04T03:28:57.086Z,0.80
2023-02-04T03:31:24.015Z,0.68
2023-02-04T03:33:51.441Z,0.93
2023-02-04T03:36:18.538Z,0.70
2023-02-04T03:38:45.392Z,0.70
2023-02-04T03:41:12.267Z,0.85
2023-02-04T03:43:39.123Z,0.60
2023-02-04T03:46:06.052Z,1.13
2023-02-04T03:48:32.934Z,0.93
2023-02-04T03:50:59.789Z,1.10
2023-02-04T03:53:26.641Z,0.80
2023-02-04T03:55:53.665Z,0.80
2023-02-04T03:58:21.629Z,0.63
2023-02-04T04:00:48.484Z,0.80
2023-02-04T04:03:15.313Z,0.88
2023-02-04T04:05:42.149Z,0.60
2023-02-04T04:08:08.984Z,0.85
2023-02-04T04:10:35.821Z,0.90
2023-02-04T04:13:02.739Z,0.68
2023-02-04T04:15:29.577Z,1.35
2023-02-04T04:17:56.527Z,0.60
2023-02-04T04:20:25.770Z,0.80
2023-02-04T04:22:53.162Z,0.95
2023-02-04T04:25:20.146Z,0.95
2023-02-04T04:27:47.112Z,0.88
2023-02-04T04:30:14.047Z,0.90
2023-02-04T04:32:40.994Z,0.80
2023-02-04T04:35:08.104Z,0.90
2023-02-04T04:37:35.554Z,1.08
2023-02-04T04:40:03.555Z,1.00
2023-02-04T04:42:30.427Z,0.80
2023-02-04T04:44:57.667Z,1.13
2023-02-04T04:47:24.600Z,1.00
2023-02-04T04:49:51.429Z,1.83
2023-02-04T04:52:18.293Z,0.95
2023-02-04T04:54:45.167Z,1.08
2023-02-04T04:57:12.035Z,1.60
2023-02-04T04:59:38.868Z,1.20
2023-02-04T05:02:05.653Z,1.05
2023-02-04T05:04:32.535Z,1.00
2023-02-04T05:06:59.475Z,0.90
2023-02-04T05:09:26.484Z,1.63
2023-02-04T05:11:53.368Z,1.08
2023-02-04T05:14:20.246Z,1.17
2023-02-04T05:16:47.130Z,1.08
2023-02-04T05:19:13.994Z,1.40
2023-02-04T05:21:41.360Z,1.10
2023-02-04T05:24:08.271Z,1.10
2023-02-04T05:26:35.046Z,1.10
2023-02-04T05:29:02.079Z,1.10
2023-02-04T05:31:29.488Z,1.13
2023-02-04T05:33:56.416Z,1.00
2023-02-04T05:36:23.339Z,1.30
2023-02-04T05:38:50.182Z,1.00
2023-02-04T05:41:17.023Z,1.50
2023-02-04T05:43:43.952Z,1.20
2023-02-04T05:46:10.865Z,1.30
2023-02-04T05:48:37.721Z,1.20
2023-02-04T05:51:04.627Z,1.50
2023-02-04T05:53:31.599Z,1.23
2023-02-04T05:55:58.442Z,1.20
2023-02-04T05:58:25.330Z,1.48
2023-02-04T06:00:52.200Z,1.10
2023-02-04T06:03:19.800Z,1.35
2023-02-04T06:05:46.811Z,1.90
2023-02-04T06:08:16.077Z,1.33
2023-02-04T06:10:42.985Z,1.40
2023-02-04T06:13:10.037Z,1.20
2023-02-04T06:15:37.241Z,1.35
2023-02-04T06:18:04.630Z,1.20
2023-02-04T06:20:31.808Z,1.33
2023-02-04T06:22:58.815Z,1.02
2023-02-04T06:25:25.754Z,1.10
2023-02-04T06:27:52.669Z,1.27
2023-02-04T06:30:19.855Z,1.00
2023-02-04T06:32:46.726Z,1.10
2023-02-04T06:35:15.500Z,1.23
2023-02-04T06:37:42.737Z,0.90
2023-02-04T06:40:10.680Z,1.02
2023-02-04T06:42:37.521Z,1.05
2023-02-04T06:45:05.002Z,1.00
2023-02-04T06:47:31.961Z,1.00
2023-02-04T06:49:58.945Z,0.80
2023-02-04T06:52:25.930Z,1.15
2023-02-04T06:54:52.818Z,1.00
2023-02-04T06:57:19.762Z,1.05
2023-02-04T06:59:47.501Z,0.98
2023-02-04T07:02:14.727Z,1.02
2023-02-04T07:04:45.519Z,1.20
2023-02-04T07:07:13.470Z,0.93
2023-02-04T07:09:40.882Z,1.00
2023-02-04T07:12:08.060Z,1.10
2023-02-04T07:14:35.118Z,0.85
2023-02-04T07:17:02.085Z,0.80
2023-02-04T07:19:29.130Z,2.00
2023-02-04T07:21:57.306Z,1.35
2023-02-04T07:24:24.495Z,1.38
2023-02-04T07:26:52.641Z,1.00
2023-02-04T07:29:25.212Z,1.10
2023-02-04T07:31:53.262Z,1.20
2023-02-04T07:34:21.170Z,2.58
2023-02-04T07:36:48.416Z,3.30
2023-02-04T07:39:15.664Z,4.07
2023-02-04T07:41:42.642Z,1.98
2023-02-04T07:44:09.601Z,1.83
2023-02-04T07:46:36.562Z,2.47
2023-02-04T07:49:03.506Z,2.88
2023-02-04T07:51:30.621Z,2.33
2023-02-04T07:53:57.564Z,1.92
2023-02-04T07:56:24.596Z,2.00
2023-02-04T07:58:51.482Z,3.03
2023-02-04T08:01:18.777Z,2.83
2023-02-04T08:03:45.728Z,3.80
2023-02-04T08:06:13.238Z,2.67
2023-02-04T08:08:40.288Z,3.13
2023-02-04T08:11:07.292Z,3.20
2023-02-04T08:13:34.687Z,2.20
2023-02-04T08:16:01.885Z,2.13
2023-02-04T08:18:29.301Z,1.77
2023-02-04T08:20:56.330Z,1.80
2023-02-04T08:23:23.586Z,2.10
2023-02-04T08:25:50.480Z,1.92
2023-02-04T08:28:17.526Z,1.80
2023-02-04T08:30:45.147Z,1.92
2023-02-04T08:33:12.140Z,1.35
2023-02-04T08:35:39.044Z,1.60
2023-02-04T08:38:06.009Z,1.80
2023-02-04T08:40:33.544Z,2.47
2023-02-04T08:43:00.617Z,2.55
2023-02-04T08:45:27.560Z,1.70
2023-02-04T08:47:54.393Z,1.40
2023-02-04T08:50:21.303Z,1.30
2023-02-04T08:52:48.148Z,1.67
2023-02-04T08:55:16.232Z,1.20
2023-02-04T08:57:43.184Z,1.85
2023-02-04T09:00:12.143Z,1.17
2023-02-04T09:02:39.186Z,1.35
2023-02-04T09:05:06.473Z,1.38
2023-02-04T09:07:33.473Z,1.75
2023-02-04T09:10:00.445Z,1.08
2023-02-04T09:12:27.505Z,1.65
2023-02-04T09:14:54.671Z,1.25
2023-02-04T09:17:21.681Z,1.60
2023-02-04T09:19:48.813Z,1.83
2023-02-04T09:22:15.828Z,1.70
2023-02-04T09:24:42.764Z,4.32
2023-02-04T09:27:09.739Z,1.88
2023-02-04T09:29:36.891Z,2.03
2023-02-04T09:32:04.095Z,3.92
2023-02-04T09:34:31.006Z,1.67
2023-02-04T09:36:57.916Z,1.83
2023-02-04T09:39:24.945Z,1.40
2023-02-04T09:41:54.579Z,2.85
2023-02-04T09:44:24.373Z,1.75
2023-02-04T09:46:54.440Z,1.40
2023-02-04T09:49:21.557Z,2.35
2023-02-04T09:51:50.004Z,2.67
2023-02-04T09:54:22.085Z,2.58
2023-02-04T09:56:49.732Z,2.17
2023-02-04T09:59:22.936Z,2.75
2023-02-04T10:02:00.519Z,2.05
2023-02-04T10:04:28.453Z,2.00
2023-02-04T10:06:58.800Z,1.42
2023-02-04T10:09:25.829Z,1.47
2023-02-04T10:11:52.891Z,1.10
2023-02-04T10:14:23.244Z,1.08
2023-02-04T10:16:59.379Z,0.87
2023-02-04T10:19:29.353Z,1.52
2023-02-04T10:21:57.138Z,1.00
2023-02-04T10:24:26.736Z,1.00
2023-02-04T10:26:54.757Z,1.30
2023-02-04T10:29:26.002Z,0.93
2023-02-04T10:31:53.724Z,0.77
2023-02-04T10:34:40.197Z,1.10
2023-02-04T10:37:21.548Z,1.15
2023-02-04T10:39:50.294Z,1.00
2023-02-04T10:42:22.288Z,1.15
2023-02-04T10:44:49.350Z,0.73
2023-02-04T10:47:18.832Z,0.98
2023-02-04T10:50:18.927Z,1.00
2023-02-04T10:53:16.917Z,0.90
2023-02-04T10:55:45.906Z,0.80
2023-02-04T10:58:15.865Z,0.98
2023-02-04T11:00:43.147Z,1.10
2023-02-04T11:03:18.983Z,0.90
2023-02-04T11:05:46.065Z,0.80
2023-02-04T11:08:21.579Z,0.90
2023-02-04T11:10:51.629Z,0.80
2023-02-04T11:13:27.736Z,1.00
2023-02-04T11:16:17.937Z,0.88
2023-02-04T11:18:47.249Z,0.93
2023-02-04T11:21:22.144Z,0.85
2023-02-04T11:23:49.582Z,0.73
2023-02-04T11:26:33.238Z,1.75
2023-02-04T11:29:00.203Z,1.48
2023-02-04T11:31:27.346Z,1.85
2023-02-04T11:34:18.730Z,1.80
2023-02-04T11:39:44.273Z,2.40
2023-02-04T11:42:40.570Z,3.40
2023-02-04T11:45:16.112Z,2.20
2023-02-04T11:47:44.700Z,2.38
2023-02-04T11:50:18.247Z,3.38
2023-02-04T11:52:46.290Z,2.65
2023-02-04T11:55:14.083Z,3.13
2023-02-04T11:57:44.623Z,3.30
2023-02-04T12:00:20.863Z,2.22
2023-02-04T12:02:50.882Z,3.15
2023-02-04T12:05:20.454Z,3.58
2023-02-04T12:07:48.509Z,2.45
2023-02-04T12:10:26.871Z,2.35
2023-02-04T12:12:58.523Z,1.75
2023-02-04T12:15:33.691Z,2.00
2023-02-04T12:18:07.723Z,2.03
2023-02-04T12:20:39.170Z,2.42
2023-02-04T12:23:07.287Z,1.88
2023-02-04T12:25:34.628Z,2.03
2023-02-04T12:28:01.634Z,1.67
2023-02-04T12:30:28.575Z,1.40
2023-02-04T12:32:55.560Z,2.70
2023-02-04T12:35:22.432Z,2.20
2023-02-04T12:37:49.526Z,1.10
2023-02-04T12:40:18.605Z,2.85
2023-02-04T12:42:45.583Z,1.92
2023-02-04T12:45:14.449Z,2.28
2023-02-04T12:47:42.639Z,1.85
2023-02-04T12:50:12.335Z,1.83
2023-02-04T12:52:39.724Z,1.90
2023-02-04T12:55:09.504Z,1.75
2023-02-04T12:57:36.637Z,2.05
2023-02-04T13:00:04.856Z,1.90
2023-02-04T13:02:31.754Z,2.05
2023-02-04T13:04:58.648Z,2.03
2023-02-04T13:07:25.890Z,1.55
2023-02-04T13:09:52.954Z,1.52
2023-02-04T13:12:19.897Z,1.30
2023-02-04T13:14:47.233Z,1.00
2023-02-04T13:17:14.192Z,1.15
2023-02-04T13:19:41.153Z,1.80
2023-02-04T13:22:08.068Z,1.20
2023-02-04T13:24:35.620Z,1.33
2023-02-04T13:27:02.661Z,1.13
2023-02-04T13:29:29.555Z,1.67
2023-02-04T13:31:57.288Z,1.38
2023-02-04T13:34:24.237Z,1.25
2023-02-04T13:36:51.098Z,1.08
2023-02-04T13:39:17.961Z,1.17
2023-02-04T13:41:44.920Z,2.42
2023-02-04T13:44:12.277Z,1.50
2023-02-04T13:46:39.325Z,1.35
2023-02-04T13:49:06.510Z,1.48
2023-02-04T13:51:33.581Z,1.45
2023-02-04T13:54:00.696Z,0.95
2023-02-04T13:56:28.412Z,1.00
2023-02-04T13:58:55.435Z,1.42
2023-02-04T14:01:22.768Z,1.00
2023-02-04T14:03:49.835Z,1.10
2023-02-04T14:06:20.942Z,1.00
2023-02-04T14:11:15.564Z,1.10
2023-02-04T14:13:42.719Z,1.45
2023-02-04T14:16:09.743Z,0.95
2023-02-04T14:18:37.299Z,0.80
2023-02-04T14:21:04.526Z,1.45
2023-02-04T14:23:31.569Z,1.40
2023-02-04T14:25:58.701Z,1.60
2023-02-04T14:28:26.110Z,2.05
2023-02-04T14:30:54.992Z,1.75
2023-02-04T14:33:23.211Z,0.85
2023-02-04T14:35:50.568Z,1.05
2023-02-04T14:38:18.820Z,1.15
2023-02-04T14:40:46.073Z,1.23
2023-02-04T14:43:13.064Z,1.08
2023-02-04T14:45:41.572Z,0.73
2023-02-04T14:48:09.134Z,0.80
2023-02-04T14:50:36.360Z,1.45
2023-02-04T14:53:03.802Z,1.10
2023-02-04T14:55:30.856Z,1.33
2023-02-04T14:57:57.824Z,1.00
2023-02-04T15:00:24.977Z,0.90
2023-02-04T15:02:52.168Z,1.27
2023-02-04T15:05:19.242Z,1.90
2023-02-04T15:07:46.208Z,1.90
2023-02-04T15:10:15.122Z,2.92
2023-02-04T15:12:42.314Z,2.25
2023-02-04T15:15:09.679Z,1.85
2023-02-04T15:17:36.713Z,1.77
2023-02-04T15:20:04.623Z,1.65
2023-02-04T15:22:31.518Z,0.95
2023-02-04T15:24:58.478Z,0.90
2023-02-04T15:27:26.088Z,1.10
2023-02-04T15:29:53.965Z,1.02
2023-02-04T15:32:20.878Z,1.27
2023-02-04T15:34:47.808Z,1.60
2023-02-04T15:37:14.752Z,1.40
2023-02-04T15:39:43.897Z,1.20
2023-02-04T15:42:11.305Z,0.80
2023-02-04T15:44:38.310Z,1.85
2023-02-04T15:47:06.511Z,3.25
2023-02-04T15:49:34.235Z,1.40
2023-02-04T15:52:02.713Z,1.80
2023-02-04T15:54:29.892Z,2.05
2023-02-04T15:56:56.934Z,1.35
2023-02-04T15:59:23.834Z,2.08
2023-02-04T16:01:51.047Z,1.65
2023-02-04T16:04:20.700Z,0.98
2023-02-04T16:06:58.199Z,1.75
2023-02-04T16:09:26.004Z,1.75
2023-02-04T16:11:52.946Z,0.90
2023-02-04T16:14:20.087Z,1.42
2023-02-04T16:16:47.074Z,1.63
2023-02-04T16:19:13.897Z,1.73
2023-02-04T16:21:41.080Z,1.80
2023-02-04T16:24:08.270Z,0.90
2023-02-04T16:26:35.233Z,1.20
2023-02-04T16:29:02.319Z,0.98
2023-02-04T16:31:29.430Z,0.60
2023-02-04T16:33:58.396Z,1.17
2023-02-04T16:36:26.565Z,1.15
2023-02-04T16:38:58.540Z,1.33
2023-02-04T16:41:27.034Z,1.05
2023-02-04T16:43:54.906Z,2.45
2023-02-04T16:46:23.694Z,0.85
2023-02-04T16:48:51.321Z,1.40
2023-02-04T16:51:18.277Z,0.93
2023-02-04T16:53:45.300Z,1.45
2023-02-04T16:56:12.588Z,1.10
2023-02-04T16:58:40.285Z,1.13
2023-02-04T17:01:07.893Z,0.85
2023-02-04T17:03:35.092Z,0.60
2023-02-04T17:06:02.824Z,1.10
2023-02-04T17:08:30.002Z,0.98
2023-02-04T17:11:16.182Z,1.00
2023-02-04T17:13:43.065Z,0.90
2023-02-04T17:16:10.056Z,1.92
2023-02-04T17:18:37.108Z,1.00
2023-02-04T17:21:04.289Z,0.68
2023-02-04T17:23:31.237Z,0.90
2023-02-04T17:25:58.312Z,0.52
2023-02-04T17:28:26.528Z,1.33
2023-02-04T17:30:53.522Z,1.30
2023-02-04T17:33:21.036Z,0.93
2023-02-04T17:35:48.141Z,1.80
2023-02-04T17:38:15.593Z,1.50
2023-02-04T17:40:43.321Z,1.20
2023-02-04T17:43:10.345Z,2.10
2023-02-04T17:45:38.161Z,1.80
2023-02-04T17:48:05.937Z,0.82
2023-02-04T17:53:23.835Z,1.88
2023-02-04T17:55:50.849Z,1.10
2023-02-04T17:58:23.988Z,2.58
2023-02-04T18:00:53.272Z,0.82
2023-02-04T18:03:23.265Z,0.50
2023-02-04T18:05:52.771Z,2.50
2023-02-04T18:08:28.231Z,1.88
2023-02-04T18:10:56.135Z,1.15
2023-02-04T18:13:32.010Z,1.80
2023-02-04T18:16:03.248Z,0.70
2023-02-04T18:18:37.408Z,1.33
2023-02-04T18:21:28.400Z,1.25
2023-02-04T18:24:30.510Z,2.22
2023-02-04T18:27:01.598Z,1.52
2023-02-04T18:32:24.472Z,2.55
2023-02-04T18:34:54.039Z,3.42
2023-02-04T18:37:56.041Z,2.90
2023-02-04T18:40:26.877Z,2.22
2023-02-04T18:43:21.395Z,2.78
2023-02-04T18:45:48.426Z,3.08
2023-02-04T18:48:21.372Z,2.20
2023-02-04T18:50:54.621Z,2.63
2023-02-04T18:53:26.708Z,1.90
2023-02-04T18:56:01.449Z,1.40
2023-02-04T18:58:36.799Z,2.50
2023-02-04T19:01:27.909Z,1.77
2023-02-04T19:03:56.296Z,1.77
2023-02-04T19:06:27.763Z,1.88
2023-02-04T19:09:17.131Z,1.80
2023-02-04T19:11:47.348Z,1.35
2023-02-04T19:14:20.102Z,1.38
2023-02-04T19:16:48.235Z,2.45
2023-02-04T19:19:32.217Z,1.35
2023-02-04T19:21:59.504Z,1.50
2023-02-04T19:24:32.650Z,1.38
2023-02-04T19:27:02.207Z,1.00
2023-02-04T19:29:38.558Z,1.55
2023-02-04T19:32:23.087Z,1.42
2023-02-04T19:34:51.673Z,2.00
2023-02-04T19:37:26.809Z,1.35
2023-02-04T19:39:55.407Z,1.30
2023-02-04T19:42:25.332Z,2.15
2023-02-04T19:44:52.632Z,1.00
2023-02-04T19:47:25.154Z,1.95
2023-02-04T19:50:00.857Z,2.10
2023-02-04T19:52:37.716Z,3.38
2023-02-04T19:55:30.534Z,4.40
2023-02-04T19:58:20.868Z,3.05
2023-02-04T20:00:55.291Z,4.40
2023-02-04T20:03:28.164Z,2.80
2023-02-04T20:06:01.282Z,3.78
2023-02-04T20:08:45.460Z,2.95
2023-02-04T20:11:35.911Z,3.90
2023-02-04T20:14:15.320Z,3.10
2023-02-04T20:16:51.107Z,3.13
2023-02-04T20:19:30.487Z,3.53
2023-02-04T20:22:00.669Z,2.75
2023-02-04T20:24:34.670Z,3.33
2023-02-04T20:27:13.612Z,2.70
2023-02-04T20:29:41.346Z,2.20
2023-02-04T20:32:37.779Z,2.17
2023-02-04T20:35:07.999Z,2.33
2023-02-04T20:37:36.261Z,4.10
2023-02-04T20:40:22.177Z,2.88
2023-02-04T20:42:58.909Z,2.47
2023-02-04T20:45:35.612Z,2.58
2023-02-04T20:48:28.780Z,1.70
2023-02-04T20:50:57.446Z,2.03
2023-02-04T20:53:45.847Z,1.98
2023-02-04T20:56:36.321Z,1.65
2023-02-04T20:59:12.523Z,1.53
2023-02-04T21:01:50.743Z,1.67
2023-02-04T21:04:42.441Z,1.70
2023-02-04T21:07:28.892Z,1.70
2023-02-04T21:09:58.152Z,1.67
2023-02-04T21:12:27.010Z,1.45
2023-02-04T21:14:54.174Z,1.30
2023-02-04T21:17:21.881Z,1.13
2023-02-04T21:19:49.386Z,1.27
2023-02-04T21:22:16.787Z,1.42
2023-02-04T21:24:45.203Z,1.63
2023-02-04T21:27:12.505Z,1.17
2023-02-04T21:29:40.030Z,1.55
2023-02-04T21:32:08.854Z,1.60
2023-02-04T21:34:36.262Z,1.73
2023-02-04T21:37:03.552Z,1.10
2023-02-04T21:39:30.754Z,1.08
2023-02-04T21:42:13.981Z,2.08
2023-02-04T21:44:41.558Z,1.60
2023-02-04T21:47:08.973Z,1.48
2023-02-04T21:49:39.486Z,2.25
2023-02-04T21:52:08.717Z,1.77
2023-02-04T21:54:35.929Z,2.75
2023-02-04T21:57:05.005Z,3.30
2023-02-04T21:59:32.511Z,2.40
2023-02-04T22:01:59.892Z,2.25
2023-02-04T22:04:28.076Z,1.48
2023-02-04T22:06:56.528Z,1.30
2023-02-04T22:09:23.805Z,1.73
2023-02-04T22:11:51.111Z,1.35
2023-02-04T22:14:19.569Z,1.45
2023-02-04T22:16:47.784Z,1.08
2023-02-04T22:19:15.041Z,1.10
2023-02-04T22:21:42.162Z,1.33
2023-02-04T22:24:09.551Z,1.42
2023-02-04T22:26:36.954Z,1.08
2023-02-04T22:29:04.099Z,1.40
2023-02-04T22:31:31.551Z,1.10
2023-02-04T22:33:58.556Z,1.08
2023-02-04T22:36:25.796Z,1.42
2023-02-04T22:38:52.960Z,0.85
2023-02-04T22:41:20.221Z,0.85
2023-02-04T22:43:47.529Z,0.95
2023-02-04T22:46:14.740Z,0.90
2023-02-04T22:48:41.974Z,0.90
2023-02-04T22:51:09.024Z,1.35
2023-02-04T22:53:35.904Z,0.90
2023-02-04T22:56:03.112Z,1.00
2023-02-04T22:58:30.129Z,1.10
2023-02-04T23:00:57.207Z,1.02
2023-02-04T23:03:24.428Z,0.90
2023-02-04T23:05:51.847Z,0.90
2023-02-04T23:08:18.928Z,1.00
2023-02-04T23:10:46.643Z,0.80
2023-02-04T23:13:13.723Z,1.02
2023-02-04T23:15:40.767Z,1.20
2023-02-04T23:18:08.108Z,1.25
2023-02-04T23:20:36.514Z,1.35
2023-02-04T23:23:04.210Z,1.00
2023-02-04T23:25:31.736Z,0.98
2023-02-04T23:27:58.884Z,0.80
2023-02-04T23:30:25.866Z,1.15
2023-02-04T23:32:52.780Z,0.93
2023-02-04T23:35:19.644Z,0.90
2023-02-04T23:37:46.634Z,1.00
2023-02-04T23:40:13.824Z,0.90
2023-02-04T23:42:40.828Z,0.70
2023-02-04T23:45:08.158Z,1.13
2023-02-04T23:47:35.107Z,1.42
2023-02-04T23:50:01.978Z,1.05
2023-02-04T23:52:29.763Z,0.82
2023-02-04T23:54:56.728Z,0.90
2023-02-04T23:57:23.652Z,0.88
2023-02-04T23:59:50.555Z,1.08
